sensor_id;sensor_type;location;lat;lon;timestamp;P1;durP1;ratioP1;P2;durP2;ratioP2
6292;SDS011;3179;54.350;10.102;2023-04-25T00:02:11;7.07;;;1.90;;
6292;SDS011;3179;54.350;10.102;2023-04-25T00:04:39;9.40;;;2.60;;
6292;SDS011;3179;54.350;10.102;2023-04-25T00:07:06;9.03;;;1.93;;
6292;SDS011;3179;54.350;10.102;2023-04-25T00:09:33;6.00;;;2.43;;
6292;SDS011;3179;54.350;10.102;2023-04-25T00:12:00;7.23;;;2.30;;
6292;SDS011;3179;54.350;10.102;2023-04-25T00:14:27;10.03;;;2.30;;
6292;SDS011;3179;54.350;10.102;2023-04-25T00:16:55;9.63;;;2.43;;
6292;SDS011;3179;54.350;10.102;2023-04-25T00:19:22;11.70;;;2.70;;
6292;SDS011;3179;54.350;10.102;2023-04-25T00:21:51;8.33;;;1.97;;
6292;SDS011;3179;54.350;10.102;2023-04-25T00:24:18;13.13;;;2.30;;
6292;SDS011;3179;54.350;10.102;2023-04-25T00:26:45;5.23;;;2.73;;
6292;SDS011;3179;54.350;10.102;2023-04-25T00:29:12;9.70;;;2.40;;
6292;SDS011;3179;54.350;10.102;2023-04-25T00:31:39;10.43;;;2.30;;
6292;SDS011;3179;54.350;10.102;2023-04-25T00:34:06;8.63;;;2.23;;
6292;SDS011;3179;54.350;10.102;2023-04-25T00:36:33;7.23;;;2.43;;
6292;SDS011;3179;54.350;10.102;2023-04-25T00:39:01;10.23;;;2.60;;
6292;SDS011;3179;54.350;10.102;2023-04-25T00:41:29;12.20;;;2.60;;
6292;SDS011;3179;54.350;10.102;2023-04-25T00:43:56;11.20;;;3.23;;
6292;SDS011;3179;54.350;10.102;2023-04-25T00:46:25;7.33;;;2.40;;
6292;SDS011;3179;54.350;10.102;2023-04-25T00:48:52;8.00;;;2.77;;
6292;SDS011;3179;54.350;10.102;2023-04-25T00:51:19;5.73;;;2.67;;
6292;SDS011;3179;54.350;10.102;2023-04-25T00:53:47;8.40;;;2.40;;
6292;SDS011;3179;54.350;10.102;2023-04-25T00:56:17;5.43;;;2.37;;
6292;SDS011;3179;54.350;10.102;2023-04-25T00:58:44;9.20;;;2.90;;
6292;SDS011;3179;54.350;10.102;2023-04-25T01:01:11;10.60;;;3.13;;
6292;SDS011;3179;54.350;10.102;2023-04-25T01:03:38;10.40;;;3.17;;
6292;SDS011;3179;54.350;10.102;2023-04-25T01:06:07;11.63;;;2.80;;
6292;SDS011;3179;54.350;10.102;2023-04-25T01:08:34;9.07;;;2.30;;
6292;SDS011;3179;54.350;10.102;2023-04-25T01:11:03;14.37;;;3.37;;
6292;SDS011;3179;54.350;10.102;2023-04-25T01:13:31;12.50;;;3.03;;
6292;SDS011;3179;54.350;10.102;2023-04-25T01:15:58;13.00;;;3.20;;
6292;SDS011;3179;54.350;10.102;2023-04-25T01:18:25;10.77;;;2.80;;
6292;SDS011;3179;54.350;10.102;2023-04-25T01:20:52;12.30;;;3.40;;
6292;SDS011;3179;54.350;10.102;2023-04-25T01:23:22;11.43;;;3.00;;
6292;SDS011;3179;54.350;10.102;2023-04-25T01:25:49;14.27;;;3.03;;
6292;SDS011;3179;54.350;10.102;2023-04-25T01:28:16;10.73;;;2.70;;
6292;SDS011;3179;54.350;10.102;2023-04-25T01:30:43;6.80;;;2.47;;
6292;SDS011;3179;54.350;10.102;2023-04-25T01:33:11;15.63;;;2.97;;
6292;SDS011;3179;54.350;10.102;2023-04-25T01:35:39;8.07;;;3.10;;
6292;SDS011;3179;54.350;10.102;2023-04-25T01:38:06;11.20;;;2.60;;
6292;SDS011;3179;54.350;10.102;2023-04-25T01:40:35;14.40;;;2.77;;
6292;SDS011;3179;54.350;10.102;2023-04-25T01:43:05;8.20;;;2.57;;
6292;SDS011;3179;54.350;10.102;2023-04-25T01:45:33;8.00;;;2.50;;
6292;SDS011;3179;54.350;10.102;2023-04-25T01:48:01;12.27;;;3.70;;
6292;SDS011;3179;54.350;10.102;2023-04-25T01:50:28;9.37;;;2.03;;
6292;SDS011;3179;54.350;10.102;2023-04-25T01:52:56;3.97;;;1.73;;
6292;SDS011;3179;54.350;10.102;2023-04-25T01:55:23;11.90;;;2.50;;
6292;SDS011;3179;54.350;10.102;2023-04-25T01:57:51;8.13;;;2.40;;
6292;SDS011;3179;54.350;10.102;2023-04-25T02:00:18;7.40;;;2.40;;
6292;SDS011;3179;54.350;10.102;2023-04-25T02:02:45;8.57;;;2.00;;
6292;SDS011;3179;54.350;10.102;2023-04-25T02:05:13;12.57;;;2.80;;
6292;SDS011;3179;54.350;10.102;2023-04-25T02:07:40;11.23;;;3.07;;
6292;SDS011;3179;54.350;10.102;2023-04-25T02:10:07;9.43;;;2.37;;
6292;SDS011;3179;54.350;10.102;2023-04-25T02:12:35;6.40;;;2.50;;
6292;SDS011;3179;54.350;10.102;2023-04-25T02:15:03;12.43;;;2.87;;
6292;SDS011;3179;54.350;10.102;2023-04-25T02:17:31;9.93;;;3.03;;
6292;SDS011;3179;54.350;10.102;2023-04-25T02:19:58;12.10;;;2.63;;
6292;SDS011;3179;54.350;10.102;2023-04-25T02:22:25;15.50;;;2.90;;
6292;SDS011;3179;54.350;10.102;2023-04-25T02:24:55;7.27;;;2.60;;
6292;SDS011;3179;54.350;10.102;2023-04-25T02:27:21;11.20;;;2.77;;
6292;SDS011;3179;54.350;10.102;2023-04-25T02:29:48;10.63;;;2.73;;
6292;SDS011;3179;54.350;10.102;2023-04-25T02:32:16;15.50;;;3.30;;
6292;SDS011;3179;54.350;10.102;2023-04-25T02:34:43;13.37;;;3.13;;
6292;SDS011;3179;54.350;10.102;2023-04-25T02:37:10;8.57;;;2.40;;
6292;SDS011;3179;54.350;10.102;2023-04-25T02:39:36;8.90;;;2.40;;
6292;SDS011;3179;54.350;10.102;2023-04-25T02:42:03;11.90;;;2.20;;
6292;SDS011;3179;54.350;10.102;2023-04-25T02:44:30;11.20;;;3.10;;
6292;SDS011;3179;54.350;10.102;2023-04-25T02:46:57;10.80;;;3.10;;
6292;SDS011;3179;54.350;10.102;2023-04-25T02:49:25;11.97;;;3.00;;
6292;SDS011;3179;54.350;10.102;2023-04-25T02:51:52;8.33;;;3.03;;
6292;SDS011;3179;54.350;10.102;2023-04-25T02:54:19;6.97;;;2.10;;
6292;SDS011;3179;54.350;10.102;2023-04-25T02:56:46;16.20;;;3.00;;
6292;SDS011;3179;54.350;10.102;2023-04-25T02:59:12;13.47;;;2.83;;
6292;SDS011;3179;54.350;10.102;2023-04-25T03:01:39;16.63;;;4.17;;
6292;SDS011;3179;54.350;10.102;2023-04-25T03:04:06;12.73;;;2.93;;
6292;SDS011;3179;54.350;10.102;2023-04-25T03:06:34;14.23;;;3.60;;
6292;SDS011;3179;54.350;10.102;2023-04-25T03:09:01;11.77;;;3.00;;
6292;SDS011;3179;54.350;10.102;2023-04-25T03:11:28;12.83;;;3.30;;
6292;SDS011;3179;54.350;10.102;2023-04-25T03:13:55;11.00;;;3.07;;
6292;SDS011;3179;54.350;10.102;2023-04-25T03:16:22;16.57;;;3.40;;
6292;SDS011;3179;54.350;10.102;2023-04-25T03:18:50;18.47;;;3.53;;
6292;SDS011;3179;54.350;10.102;2023-04-25T03:21:16;12.80;;;3.20;;
6292;SDS011;3179;54.350;10.102;2023-04-25T03:23:45;10.00;;;3.10;;
6292;SDS011;3179;54.350;10.102;2023-04-25T03:26:11;8.70;;;3.07;;
6292;SDS011;3179;54.350;10.102;2023-04-25T03:28:38;7.97;;;2.80;;
6292;SDS011;3179;54.350;10.102;2023-04-25T03:31:05;9.67;;;2.70;;
6292;SDS011;3179;54.350;10.102;2023-04-25T03:33:32;11.67;;;3.40;;
6292;SDS011;3179;54.350;10.102;2023-04-25T03:35:59;7.80;;;2.53;;
6292;SDS011;3179;54.350;10.102;2023-04-25T03:38:26;16.80;;;3.30;;
6292;SDS011;3179;54.350;10.102;2023-04-25T03:40:54;10.20;;;3.10;;
6292;SDS011;3179;54.350;10.102;2023-04-25T03:43:21;11.47;;;3.20;;
6292;SDS011;3179;54.350;10.102;2023-04-25T03:45:48;10.33;;;2.97;;
6292;SDS011;3179;54.350;10.102;2023-04-25T03:48:15;10.17;;;2.90;;
6292;SDS011;3179;54.350;10.102;2023-04-25T03:50:42;10.43;;;3.13;;
6292;SDS011;3179;54.350;10.102;2023-04-25T03:53:09;16.57;;;3.20;;
6292;SDS011;3179;54.350;10.102;2023-04-25T03:55:35;13.67;;;3.20;;
6292;SDS011;3179;54.350;10.102;2023-04-25T03:58:03;7.70;;;2.83;;
6292;SDS011;3179;54.350;10.102;2023-04-25T04:00:30;11.37;;;2.87;;
6292;SDS011;3179;54.350;10.102;2023-04-25T04:02:57;13.17;;;3.30;;
6292;SDS011;3179;54.350;10.102;2023-04-25T04:05:24;10.10;;;2.80;;
6292;SDS011;3179;54.350;10.102;2023-04-25T04:07:51;13.47;;;3.33;;
6292;SDS011;3179;54.350;10.102;2023-04-25T04:10:17;8.90;;;2.90;;
6292;SDS011;3179;54.350;10.102;2023-04-25T04:12:44;9.60;;;2.93;;
6292;SDS011;3179;54.350;10.102;2023-04-25T04:15:12;16.23;;;3.40;;
6292;SDS011;3179;54.350;10.102;2023-04-25T04:17:39;11.27;;;3.10;;
6292;SDS011;3179;54.350;10.102;2023-04-25T04:20:07;5.23;;;2.10;;
6292;SDS011;3179;54.350;10.102;2023-04-25T04:22:34;8.67;;;3.10;;
6292;SDS011;3179;54.350;10.102;2023-04-25T04:25:01;9.33;;;2.77;;
6292;SDS011;3179;54.350;10.102;2023-04-25T04:27:30;11.63;;;3.30;;
6292;SDS011;3179;54.350;10.102;2023-04-25T04:29:58;10.23;;;2.80;;
6292;SDS011;3179;54.350;10.102;2023-04-25T04:32:26;8.20;;;2.73;;
6292;SDS011;3179;54.350;10.102;2023-04-25T04:34:55;10.07;;;3.13;;
6292;SDS011;3179;54.350;10.102;2023-04-25T04:37:22;8.43;;;2.90;;
6292;SDS011;3179;54.350;10.102;2023-04-25T04:39:49;9.27;;;2.60;;
6292;SDS011;3179;54.350;10.102;2023-04-25T04:42:16;9.73;;;3.00;;
6292;SDS011;3179;54.350;10.102;2023-04-25T04:44:43;11.63;;;3.10;;
6292;SDS011;3179;54.350;10.102;2023-04-25T04:47:10;9.00;;;2.93;;
6292;SDS011;3179;54.350;10.102;2023-04-25T04:49:40;9.43;;;2.40;;
6292;SDS011;3179;54.350;10.102;2023-04-25T04:52:07;10.47;;;3.10;;
6292;SDS011;3179;54.350;10.102;2023-04-25T04:54:34;8.73;;;3.30;;
6292;SDS011;3179;54.350;10.102;2023-04-25T04:57:01;12.90;;;2.60;;
6292;SDS011;3179;54.350;10.102;2023-04-25T04:59:28;10.70;;;2.30;;
6292;SDS011;3179;54.350;10.102;2023-04-25T05:01:54;7.80;;;2.87;;
6292;SDS011;3179;54.350;10.102;2023-04-25T05:04:21;13.10;;;2.40;;
6292;SDS011;3179;54.350;10.102;2023-04-25T05:06:49;9.70;;;2.57;;
6292;SDS011;3179;54.350;10.102;2023-04-25T05:09:16;9.57;;;2.57;;
6292;SDS011;3179;54.350;10.102;2023-04-25T05:11:44;11.60;;;2.93;;
6292;SDS011;3179;54.350;10.102;2023-04-25T05:14:10;10.73;;;3.07;;
6292;SDS011;3179;54.350;10.102;2023-04-25T05:16:37;13.77;;;2.93;;
6292;SDS011;3179;54.350;10.102;2023-04-25T05:19:04;13.43;;;2.80;;
6292;SDS011;3179;54.350;10.102;2023-04-25T05:21:31;7.10;;;2.30;;
6292;SDS011;3179;54.350;10.102;2023-04-25T05:23:59;6.53;;;3.00;;
6292;SDS011;3179;54.350;10.102;2023-04-25T05:26:26;10.53;;;3.00;;
6292;SDS011;3179;54.350;10.102;2023-04-25T05:28:55;12.33;;;3.20;;
6292;SDS011;3179;54.350;10.102;2023-04-25T05:31:22;9.57;;;2.47;;
6292;SDS011;3179;54.350;10.102;2023-04-25T05:33:49;8.53;;;2.93;;
6292;SDS011;3179;54.350;10.102;2023-04-25T05:36:16;10.53;;;2.70;;
6292;SDS011;3179;54.350;10.102;2023-04-25T05:38:44;8.53;;;2.33;;
6292;SDS011;3179;54.350;10.102;2023-04-25T05:41:12;15.97;;;2.77;;
6292;SDS011;3179;54.350;10.102;2023-04-25T05:43:39;16.00;;;3.13;;
6292;SDS011;3179;54.350;10.102;2023-04-25T05:46:10;8.93;;;3.00;;
6292;SDS011;3179;54.350;10.102;2023-04-25T05:48:37;11.63;;;2.40;;
6292;SDS011;3179;54.350;10.102;2023-04-25T05:51:04;7.33;;;2.70;;
6292;SDS011;3179;54.350;10.102;2023-04-25T05:53:30;10.70;;;3.33;;
6292;SDS011;3179;54.350;10.102;2023-04-25T05:55:57;15.10;;;3.03;;
6292;SDS011;3179;54.350;10.102;2023-04-25T05:58:25;9.73;;;2.63;;
6292;SDS011;3179;54.350;10.102;2023-04-25T06:00:52;9.60;;;2.90;;
6292;SDS011;3179;54.350;10.102;2023-04-25T06:03:19;13.20;;;2.57;;
6292;SDS011;3179;54.350;10.102;2023-04-25T06:05:46;9.43;;;2.50;;
6292;SDS011;3179;54.350;10.102;2023-04-25T06:08:12;9.43;;;2.37;;
6292;SDS011;3179;54.350;10.102;2023-04-25T06:10:39;5.60;;;2.33;;
6292;SDS011;3179;54.350;10.102;2023-04-25T06:13:06;10.27;;;2.57;;
6292;SDS011;3179;54.350;10.102;2023-04-25T06:15:34;9.60;;;2.90;;
6292;SDS011;3179;54.350;10.102;2023-04-25T06:18:01;9.60;;;2.97;;
6292;SDS011;3179;54.350;10.102;2023-04-25T06:20:28;10.53;;;2.67;;
6292;SDS011;3179;54.350;10.102;2023-04-25T06:22:55;11.33;;;2.80;;
6292;SDS011;3179;54.350;10.102;2023-04-25T06:25:22;9.10;;;2.73;;
6292;SDS011;3179;54.350;10.102;2023-04-25T06:27:48;12.77;;;2.83;;
6292;SDS011;3179;54.350;10.102;2023-04-25T06:30:15;11.40;;;2.40;;
6292;SDS011;3179;54.350;10.102;2023-04-25T06:32:44;10.60;;;3.03;;
6292;SDS011;3179;54.350;10.102;2023-04-25T06:35:11;8.50;;;2.23;;
6292;SDS011;3179;54.350;10.102;2023-04-25T06:37:38;10.70;;;2.47;;
6292;SDS011;3179;54.350;10.102;2023-04-25T06:40:06;8.53;;;2.23;;
6292;SDS011;3179;54.350;10.102;2023-04-25T06:42:42;7.90;;;2.83;;
6292;SDS011;3179;54.350;10.102;2023-04-25T06:45:09;8.57;;;2.97;;
6292;SDS011;3179;54.350;10.102;2023-04-25T06:47:36;14.63;;;4.03;;
6292;SDS011;3179;54.350;10.102;2023-04-25T06:50:05;14.47;;;3.03;;
6292;SDS011;3179;54.350;10.102;2023-04-25T06:52:32;5.40;;;2.20;;
6292;SDS011;3179;54.350;10.102;2023-04-25T06:54:59;8.00;;;3.07;;
6292;SDS011;3179;54.350;10.102;2023-04-25T06:57:26;4.93;;;2.33;;
6292;SDS011;3179;54.350;10.102;2023-04-25T06:59:53;9.30;;;2.67;;
6292;SDS011;3179;54.350;10.102;2023-04-25T07:02:20;9.80;;;2.63;;
6292;SDS011;3179;54.350;10.102;2023-04-25T07:04:47;13.20;;;3.13;;
6292;SDS011;3179;54.350;10.102;2023-04-25T07:07:15;7.70;;;2.47;;
6292;SDS011;3179;54.350;10.102;2023-04-25T07:09:42;5.67;;;2.70;;
6292;SDS011;3179;54.350;10.102;2023-04-25T07:12:09;10.60;;;2.23;;
6292;SDS011;3179;54.350;10.102;2023-04-25T07:14:36;6.70;;;2.10;;
6292;SDS011;3179;54.350;10.102;2023-04-25T07:17:03;7.80;;;2.40;;
6292;SDS011;3179;54.350;10.102;2023-04-25T07:19:31;5.77;;;2.37;;
6292;SDS011;3179;54.350;10.102;2023-04-25T07:21:58;11.40;;;2.23;;
6292;SDS011;3179;54.350;10.102;2023-04-25T07:24:26;10.13;;;2.03;;
6292;SDS011;3179;54.350;10.102;2023-04-25T07:26:53;7.60;;;2.43;;
6292;SDS011;3179;54.350;10.102;2023-04-25T07:29:20;6.53;;;2.10;;
6292;SDS011;3179;54.350;10.102;2023-04-25T07:31:47;12.30;;;3.30;;
6292;SDS011;3179;54.350;10.102;2023-04-25T07:34:13;15.43;;;3.03;;
6292;SDS011;3179;54.350;10.102;2023-04-25T07:36:40;7.33;;;2.00;;
6292;SDS011;3179;54.350;10.102;2023-04-25T07:39:07;8.40;;;2.40;;
6292;SDS011;3179;54.350;10.102;2023-04-25T07:41:35;5.70;;;2.50;;
6292;SDS011;3179;54.350;10.102;2023-04-25T07:44:02;8.13;;;2.17;;
6292;SDS011;3179;54.350;10.102;2023-04-25T07:46:29;20.43;;;3.07;;
6292;SDS011;3179;54.350;10.102;2023-04-25T07:48:56;8.60;;;2.50;;
6292;SDS011;3179;54.350;10.102;2023-04-25T07:51:22;12.37;;;2.67;;
6292;SDS011;3179;54.350;10.102;2023-04-25T07:53:49;17.87;;;2.30;;
6292;SDS011;3179;54.350;10.102;2023-04-25T07:56:16;9.70;;;2.60;;
6292;SDS011;3179;54.350;10.102;2023-04-25T07:58:44;8.73;;;2.27;;
6292;SDS011;3179;54.350;10.102;2023-04-25T08:01:11;6.70;;;2.03;;
6292;SDS011;3179;54.350;10.102;2023-04-25T08:03:37;12.93;;;2.90;;
6292;SDS011;3179;54.350;10.102;2023-04-25T08:06:04;6.13;;;2.20;;
6292;SDS011;3179;54.350;10.102;2023-04-25T08:08:31;7.23;;;2.47;;
6292;SDS011;3179;54.350;10.102;2023-04-25T08:10:58;7.93;;;2.47;;
6292;SDS011;3179;54.350;10.102;2023-04-25T08:13:25;22.27;;;2.90;;
6292;SDS011;3179;54.350;10.102;2023-04-25T08:15:53;11.03;;;2.77;;
6292;SDS011;3179;54.350;10.102;2023-04-25T08:18:20;11.43;;;2.33;;
6292;SDS011;3179;54.350;10.102;2023-04-25T08:20:47;10.67;;;2.53;;
6292;SDS011;3179;54.350;10.102;2023-04-25T08:23:14;7.67;;;2.00;;
6292;SDS011;3179;54.350;10.102;2023-04-25T08:25:40;6.20;;;2.17;;
6292;SDS011;3179;54.350;10.102;2023-04-25T08:28:07;7.90;;;2.80;;
6292;SDS011;3179;54.350;10.102;2023-04-25T08:30:34;6.60;;;2.20;;
6292;SDS011;3179;54.350;10.102;2023-04-25T08:33:02;8.53;;;1.83;;
6292;SDS011;3179;54.350;10.102;2023-04-25T08:35:29;9.03;;;2.63;;
6292;SDS011;3179;54.350;10.102;2023-04-25T08:37:56;11.27;;;2.57;;
6292;SDS011;3179;54.350;10.102;2023-04-25T08:40:22;11.70;;;2.30;;
6292;SDS011;3179;54.350;10.102;2023-04-25T08:42:55;10.17;;;2.50;;
6292;SDS011;3179;54.350;10.102;2023-04-25T08:45:22;4.80;;;1.70;;
6292;SDS011;3179;54.350;10.102;2023-04-25T08:47:50;15.90;;;2.40;;
6292;SDS011;3179;54.350;10.102;2023-04-25T08:50:19;11.00;;;2.97;;
6292;SDS011;3179;54.350;10.102;2023-04-25T08:52:47;5.80;;;2.13;;
6292;SDS011;3179;54.350;10.102;2023-04-25T08:55:17;7.00;;;2.97;;
6292;SDS011;3179;54.350;10.102;2023-04-25T08:57:45;7.57;;;3.27;;
6292;SDS011;3179;54.350;10.102;2023-04-25T09:00:12;8.03;;;2.90;;
6292;SDS011;3179;54.350;10.102;2023-04-25T09:02:39;4.73;;;1.93;;
6292;SDS011;3179;54.350;10.102;2023-04-25T09:05:08;6.67;;;2.30;;
6292;SDS011;3179;54.350;10.102;2023-04-25T09:07:37;3.97;;;1.70;;
6292;SDS011;3179;54.350;10.102;2023-04-25T09:10:04;7.33;;;1.90;;
6292;SDS011;3179;54.350;10.102;2023-04-25T09:12:31;3.00;;;1.43;;
6292;SDS011;3179;54.350;10.102;2023-04-25T09:15:02;3.80;;;1.53;;
6292;SDS011;3179;54.350;10.102;2023-04-25T09:17:30;4.10;;;1.60;;
6292;SDS011;3179;54.350;10.102;2023-04-25T09:20:05;6.03;;;2.13;;
6292;SDS011;3179;54.350;10.102;2023-04-25T09:22:33;6.53;;;2.53;;
6292;SDS011;3179;54.350;10.102;2023-04-25T09:25:03;8.80;;;1.80;;
6292;SDS011;3179;54.350;10.102;2023-04-25T09:27:33;4.93;;;1.93;;
6292;SDS011;3179;54.350;10.102;2023-04-25T09:30:00;8.83;;;2.27;;
6292;SDS011;3179;54.350;10.102;2023-04-25T09:32:27;7.97;;;1.80;;
6292;SDS011;3179;54.350;10.102;2023-04-25T09:34:55;8.50;;;1.73;;
6292;SDS011;3179;54.350;10.102;2023-04-25T09:37:23;5.67;;;1.90;;
6292;SDS011;3179;54.350;10.102;2023-04-25T09:39:52;6.57;;;1.97;;
6292;SDS011;3179;54.350;10.102;2023-04-25T09:42:22;7.57;;;3.17;;
6292;SDS011;3179;54.350;10.102;2023-04-25T09:44:51;6.93;;;2.50;;
6292;SDS011;3179;54.350;10.102;2023-04-25T09:47:20;5.73;;;2.30;;
6292;SDS011;3179;54.350;10.102;2023-04-25T09:49:48;5.53;;;1.70;;
6292;SDS011;3179;54.350;10.102;2023-04-25T09:52:16;6.83;;;2.30;;
6292;SDS011;3179;54.350;10.102;2023-04-25T09:54:45;10.40;;;2.40;;
6292;SDS011;3179;54.350;10.102;2023-04-25T09:57:13;8.23;;;1.90;;
6292;SDS011;3179;54.350;10.102;2023-04-25T09:59:46;9.73;;;1.70;;
6292;SDS011;3179;54.350;10.102;2023-04-25T10:02:15;3.13;;;1.70;;
6292;SDS011;3179;54.350;10.102;2023-04-25T10:04:44;8.60;;;2.40;;
6292;SDS011;3179;54.350;10.102;2023-04-25T10:07:15;5.97;;;1.93;;
6292;SDS011;3179;54.350;10.102;2023-04-25T10:09:42;3.80;;;1.40;;
6292;SDS011;3179;54.350;10.102;2023-04-25T10:12:11;10.10;;;2.07;;
6292;SDS011;3179;54.350;10.102;2023-04-25T10:14:38;6.80;;;1.60;;
6292;SDS011;3179;54.350;10.102;2023-04-25T10:17:08;4.17;;;1.70;;
6292;SDS011;3179;54.350;10.102;2023-04-25T10:19:36;5.77;;;1.83;;
6292;SDS011;3179;54.350;10.102;2023-04-25T10:22:05;7.03;;;1.53;;
6292;SDS011;3179;54.350;10.102;2023-04-25T10:24:35;7.60;;;1.40;;
6292;SDS011;3179;54.350;10.102;2023-04-25T10:27:02;3.23;;;1.40;;
6292;SDS011;3179;54.350;10.102;2023-04-25T10:29:30;10.60;;;2.47;;
6292;SDS011;3179;54.350;10.102;2023-04-25T10:31:57;2.77;;;1.50;;
6292;SDS011;3179;54.350;10.102;2023-04-25T10:34:37;7.53;;;1.83;;
6292;SDS011;3179;54.350;10.102;2023-04-25T10:37:05;8.97;;;1.87;;
6292;SDS011;3179;54.350;10.102;2023-04-25T10:39:35;5.00;;;1.67;;
6292;SDS011;3179;54.350;10.102;2023-04-25T10:42:02;7.17;;;2.33;;
6292;SDS011;3179;54.350;10.102;2023-04-25T10:44:29;4.87;;;1.80;;
6292;SDS011;3179;54.350;10.102;2023-04-25T10:46:56;6.03;;;1.63;;
6292;SDS011;3179;54.350;10.102;2023-04-25T10:49:32;4.57;;;1.53;;
6292;SDS011;3179;54.350;10.102;2023-04-25T10:54:51;7.07;;;2.13;;
6292;SDS011;3179;54.350;10.102;2023-04-25T10:57:28;7.97;;;1.80;;
6292;SDS011;3179;54.350;10.102;2023-04-25T11:02:43;3.43;;;1.50;;
6292;SDS011;3179;54.350;10.102;2023-04-25T11:05:17;6.03;;;1.70;;
6292;SDS011;3179;54.350;10.102;2023-04-25T11:07:49;7.03;;;2.30;;
6292;SDS011;3179;54.350;10.102;2023-04-25T11:10:17;4.47;;;2.10;;
6292;SDS011;3179;54.350;10.102;2023-04-25T11:12:45;4.03;;;1.80;;
6292;SDS011;3179;54.350;10.102;2023-04-25T11:15:12;4.57;;;2.03;;
6292;SDS011;3179;54.350;10.102;2023-04-25T11:17:39;5.70;;;1.83;;
6292;SDS011;3179;54.350;10.102;2023-04-25T11:20:06;3.47;;;1.80;;
6292;SDS011;3179;54.350;10.102;2023-04-25T11:22:38;7.07;;;2.30;;
6292;SDS011;3179;54.350;10.102;2023-04-25T11:25:07;2.03;;;1.40;;
6292;SDS011;3179;54.350;10.102;2023-04-25T11:27:37;3.37;;;1.40;;
6292;SDS011;3179;54.350;10.102;2023-04-25T11:30:13;4.37;;;1.47;;
6292;SDS011;3179;54.350;10.102;2023-04-25T11:32:41;7.77;;;2.33;;
6292;SDS011;3179;54.350;10.102;2023-04-25T11:35:08;4.37;;;1.50;;
6292;SDS011;3179;54.350;10.102;2023-04-25T11:37:36;6.63;;;1.63;;
6292;SDS011;3179;54.350;10.102;2023-04-25T11:40:05;3.50;;;1.20;;
6292;SDS011;3179;54.350;10.102;2023-04-25T11:42:35;4.07;;;1.30;;
6292;SDS011;3179;54.350;10.102;2023-04-25T11:45:03;5.83;;;1.60;;
6292;SDS011;3179;54.350;10.102;2023-04-25T11:47:32;6.93;;;1.70;;
6292;SDS011;3179;54.350;10.102;2023-04-25T11:49:59;4.50;;;1.30;;
6292;SDS011;3179;54.350;10.102;2023-04-25T11:52:38;7.50;;;1.83;;
6292;SDS011;3179;54.350;10.102;2023-04-25T11:55:07;3.40;;;1.43;;
6292;SDS011;3179;54.350;10.102;2023-04-25T11:57:34;5.43;;;2.23;;
6292;SDS011;3179;54.350;10.102;2023-04-25T12:00:06;6.67;;;2.10;;
6292;SDS011;3179;54.350;10.102;2023-04-25T12:02:36;4.03;;;1.47;;
6292;SDS011;3179;54.350;10.102;2023-04-25T12:05:05;6.10;;;1.33;;
6292;SDS011;3179;54.350;10.102;2023-04-25T12:07:33;3.43;;;1.70;;
6292;SDS011;3179;54.350;10.102;2023-04-25T12:10:03;3.30;;;1.70;;
6292;SDS011;3179;54.350;10.102;2023-04-25T12:12:32;11.17;;;1.77;;
6292;SDS011;3179;54.350;10.102;2023-04-25T12:15:07;4.90;;;1.90;;
6292;SDS011;3179;54.350;10.102;2023-04-25T12:17:36;9.97;;;2.50;;
6292;SDS011;3179;54.350;10.102;2023-04-25T12:20:05;5.30;;;2.20;;
6292;SDS011;3179;54.350;10.102;2023-04-25T12:22:34;4.67;;;1.90;;
6292;SDS011;3179;54.350;10.102;2023-04-25T12:25:02;5.53;;;2.20;;
6292;SDS011;3179;54.350;10.102;2023-04-25T12:27:30;7.37;;;2.00;;
6292;SDS011;3179;54.350;10.102;2023-04-25T12:29:57;6.93;;;1.80;;
6292;SDS011;3179;54.350;10.102;2023-04-25T12:32:24;6.93;;;1.80;;
6292;SDS011;3179;54.350;10.102;2023-04-25T12:34:51;3.53;;;1.47;;
6292;SDS011;3179;54.350;10.102;2023-04-25T12:37:18;4.97;;;1.50;;
6292;SDS011;3179;54.350;10.102;2023-04-25T12:39:45;5.47;;;1.60;;
6292;SDS011;3179;54.350;10.102;2023-04-25T12:42:13;7.40;;;2.20;;
6292;SDS011;3179;54.350;10.102;2023-04-25T12:44:40;6.97;;;2.30;;
6292;SDS011;3179;54.350;10.102;2023-04-25T12:47:06;5.00;;;1.73;;
6292;SDS011;3179;54.350;10.102;2023-04-25T12:49:33;6.50;;;1.67;;
6292;SDS011;3179;54.350;10.102;2023-04-25T12:52:00;2.70;;;1.60;;
6292;SDS011;3179;54.350;10.102;2023-04-25T12:54:27;2.20;;;0.90;;
6292;SDS011;3179;54.350;10.102;2023-04-25T12:56:54;2.97;;;1.20;;
6292;SDS011;3179;54.350;10.102;2023-04-25T12:59:22;4.43;;;1.60;;
6292;SDS011;3179;54.350;10.102;2023-04-25T13:01:49;4.20;;;1.30;;
6292;SDS011;3179;54.350;10.102;2023-04-25T13:04:15;5.20;;;1.47;;
6292;SDS011;3179;54.350;10.102;2023-04-25T13:06:42;4.30;;;1.43;;
6292;SDS011;3179;54.350;10.102;2023-04-25T13:09:09;7.70;;;2.00;;
6292;SDS011;3179;54.350;10.102;2023-04-25T13:11:37;4.23;;;1.70;;
6292;SDS011;3179;54.350;10.102;2023-04-25T13:14:04;4.00;;;1.63;;
6292;SDS011;3179;54.350;10.102;2023-04-25T13:16:33;5.50;;;1.70;;
6292;SDS011;3179;54.350;10.102;2023-04-25T13:18:59;6.60;;;1.90;;
6292;SDS011;3179;54.350;10.102;2023-04-25T13:21:26;5.40;;;1.83;;
6292;SDS011;3179;54.350;10.102;2023-04-25T13:23:55;7.60;;;2.10;;
6292;SDS011;3179;54.350;10.102;2023-04-25T13:26:22;5.03;;;1.90;;
6292;SDS011;3179;54.350;10.102;2023-04-25T13:28:49;4.40;;;2.17;;
6292;SDS011;3179;54.350;10.102;2023-04-25T13:31:16;10.57;;;2.10;;
6292;SDS011;3179;54.350;10.102;2023-04-25T13:33:44;12.77;;;2.03;;
6292;SDS011;3179;54.350;10.102;2023-04-25T13:36:11;9.97;;;3.13;;
6292;SDS011;3179;54.350;10.102;2023-04-25T13:38:37;7.43;;;2.03;;
6292;SDS011;3179;54.350;10.102;2023-04-25T13:41:06;7.03;;;1.40;;
6292;SDS011;3179;54.350;10.102;2023-04-25T13:43:33;4.30;;;1.37;;
6292;SDS011;3179;54.350;10.102;2023-04-25T13:46:00;5.50;;;2.10;;
6292;SDS011;3179;54.350;10.102;2023-04-25T13:48:26;4.00;;;1.47;;
6292;SDS011;3179;54.350;10.102;2023-04-25T13:50:54;4.33;;;2.10;;
6292;SDS011;3179;54.350;10.102;2023-04-25T13:53:21;3.30;;;1.60;;
6292;SDS011;3179;54.350;10.102;2023-04-25T13:55:48;3.97;;;1.73;;
6292;SDS011;3179;54.350;10.102;2023-04-25T13:58:15;4.60;;;1.50;;
6292;SDS011;3179;54.350;10.102;2023-04-25T14:00:42;6.80;;;1.87;;
6292;SDS011;3179;54.350;10.102;2023-04-25T14:03:11;9.00;;;1.77;;
6292;SDS011;3179;54.350;10.102;2023-04-25T14:05:37;4.83;;;1.63;;
6292;SDS011;3179;54.350;10.102;2023-04-25T14:08:07;4.50;;;1.40;;
6292;SDS011;3179;54.350;10.102;2023-04-25T14:10:35;3.73;;;1.60;;
6292;SDS011;3179;54.350;10.102;2023-04-25T14:13:02;5.93;;;1.70;;
6292;SDS011;3179;54.350;10.102;2023-04-25T14:15:30;7.87;;;1.70;;
6292;SDS011;3179;54.350;10.102;2023-04-25T14:17:57;2.60;;;1.50;;
6292;SDS011;3179;54.350;10.102;2023-04-25T14:20:25;4.67;;;1.90;;
6292;SDS011;3179;54.350;10.102;2023-04-25T14:22:52;4.40;;;1.50;;
6292;SDS011;3179;54.350;10.102;2023-04-25T14:25:21;3.40;;;1.30;;
6292;SDS011;3179;54.350;10.102;2023-04-25T14:27:47;5.83;;;1.30;;
6292;SDS011;3179;54.350;10.102;2023-04-25T14:30:15;7.40;;;1.63;;
6292;SDS011;3179;54.350;10.102;2023-04-25T14:32:42;5.30;;;1.60;;
6292;SDS011;3179;54.350;10.102;2023-04-25T14:35:09;7.50;;;2.03;;
6292;SDS011;3179;54.350;10.102;2023-04-25T14:37:36;4.80;;;1.50;;
6292;SDS011;3179;54.350;10.102;2023-04-25T14:40:03;3.00;;;1.80;;
6292;SDS011;3179;54.350;10.102;2023-04-25T14:42:33;5.60;;;1.73;;
6292;SDS011;3179;54.350;10.102;2023-04-25T14:45:00;3.10;;;1.33;;
6292;SDS011;3179;54.350;10.102;2023-04-25T14:47:27;3.90;;;1.33;;
6292;SDS011;3179;54.350;10.102;2023-04-25T14:49:54;4.73;;;2.10;;
6292;SDS011;3179;54.350;10.102;2023-04-25T14:52:21;4.50;;;2.00;;
6292;SDS011;3179;54.350;10.102;2023-04-25T14:54:47;9.40;;;2.10;;
6292;SDS011;3179;54.350;10.102;2023-04-25T14:57:14;7.77;;;2.47;;
6292;SDS011;3179;54.350;10.102;2023-04-25T14:59:43;9.30;;;1.87;;
6292;SDS011;3179;54.350;10.102;2023-04-25T15:02:10;3.87;;;1.93;;
6292;SDS011;3179;54.350;10.102;2023-04-25T15:04:37;5.90;;;2.13;;
6292;SDS011;3179;54.350;10.102;2023-04-25T15:07:04;14.63;;;3.07;;